Time,TemperatureF,DewpointF,PressureIn,WindDirection,WindDirectionDegrees,WindSpeedMPH,WindSpeedGustMPH,Humidity,HourlyPrecipIn,Conditions,Clouds,dailyrainin,SoftwareType,DateUTC
2014-10-31 00:01:00,38.6,35.9,29.99,NW,317,2.3,2.3,90,0.00,CLR,,0.00,WeatherDisplay:10.37,2014-10-31 04:01:00,
2014-10-31 00:06:00,38.5,35.8,29.99,NW,317,1.2,1.2,90,0.00,CLR,,0.00,WeatherDisplay:10.37,2014-10-31 04:06:00,
2014-10-31 00:11:00,38.5,35.8,29.99,NW,317,2.3,2.3,90,0.00,CLR,,0.00,WeatherDisplay:10.37,2014-10-31 04:11:00,
2014-10-31 00:16:00,38.5,35.8,29.99,NW,317,2.3,2.3,90,0.00,CLR,,0.00,WeatherDisplay:10.37,2014-10-31 04:16:00,
2014-10-31 00:21:00,38.3,35.6,29.99,NW,317,1.2,0.0,90,0.00,CLR,,0.00,WeatherDisplay:10.37,2014-10-31 04:21:00,
2014-10-31 00:26:00,38.4,35.7,29.99,NW,317,0.0,0.0,90,0.00,CLR,,0.00,WeatherDisplay:10.37,2014-10-31 04:26:00,
2014-10-31 00:31:00,38.3,35.6,29.99,NW,317,0.0,0.0,90,0.00,CLR,,0.00,WeatherDisplay:10.37,2014-10-31 04:31:00,
2014-10-31 00:36:00,38.2,35.5,29.99,NW,317,0.0,0.0,90,0.00,CLR,,0.00,WeatherDisplay:10.37,2014-10-31 04:36:00,
2014-10-31 00:41:00,38.2,35.2,29.99,NW,317,0.0,0.0,89,0.00,CLR,,0.00,WeatherDisplay:10.37,2014-10-31 04:41:00,
2014-10-31 00:46:00,38.1,35.1,29.99,NW,317,0.0,0.0,89,0.00,CLR,,0.00,WeatherDisplay:10.37,2014-10-31 04:46:00,
2014-10-31 00:51:00,37.9,35.2,30.00,NW,317,0.0,0.0,90,0.00,CLR,,0.00,WeatherDisplay:10.37,2014-10-31 04:51:00,
2014-10-31 00:56:00,37.7,35.3,30.00,NW,317,0.0,0.0,91,0.00,CLR,,0.00,WeatherDisplay:10.37,2014-10-31 04:56:00,
2014-10-31 01:01:00,37.8,35.1,30.00,NW,317,0.0,0.0,90,0.00,CLR,,0.00,WeatherDisplay:10.37,2014-10-31 05:01:00,
2014-10-31 01:06:00,37.6,34.7,29.99,NW,317,0.0,0.0,89,0.00,CLR,,0.00,WeatherDisplay:10.37,2014-10-31 05:06:00,
2014-10-31 01:11:00,37.6,34.9,30.00,NW,317,0.0,0.0,90,0.00,CLR,,0.00,WeatherDisplay:10.37,2014-10-31 05:11:00,
2014-10-31 01:16:00,37.6,35.2,30.00,NW,317,0.0,0.0,91,0.00,CLR,,0.00,WeatherDisplay:10.37,2014-10-31 05:16:00,
2014-10-31 01:21:00,37.2,34.8,30.00,NW,317,0.0,0.0,91,0.00,CLR,,0.00,WeatherDisplay:10.37,2014-10-31 05:21:00,
2014-10-31 01:26:00,36.9,34.8,30.00,NW,317,0.0,0.0,92,0.00,CLR,,0.00,WeatherDisplay:10.37,2014-10-31 05:26:00,
2014-10-31 01:31:00,37.0,34.6,30.00,NW,317,0.0,0.0,91,0.00,CLR,,0.00,WeatherDisplay:10.37,2014-10-31 05:31:00,
2014-10-31 01:36:00,36.8,34.7,30.00,NW,317,0.0,0.0,92,0.00,CLR,,0.00,WeatherDisplay:10.37,2014-10-31 05:36:00,
2014-10-31 01:41:00,36.8,34.7,30.00,NW,317,0.0,0.0,92,0.00,CLR,,0.00,WeatherDisplay:10.37,2014-10-31 05:41:00,
2014-10-31 01:46:00,36.5,34.4,30.00,NW,317,0.0,0.0,92,0.00,CLR,,0.00,WeatherDisplay:10.37,2014-10-31 05:46:00,
2014-10-31 01:51:00,36.5,34.7,30.00,NW,317,0.0,0.0,93,0.00,CLR,,0.00,WeatherDisplay:10.37,2014-10-31 05:51:00,
2014-10-31 01:56:00,36.5,34.4,30.00,NW,317,0.0,0.0,92,0.00,CLR,,0.00,WeatherDisplay:10.37,2014-10-31 05:56:00,
2014-10-31 02:01:00,36.1,34.0,30.00,NW,317,0.0,0.0,92,0.00,CLR,,0.00,WeatherDisplay:10.37,2014-10-31 06:01:00,
2014-10-31 02:06:00,35.9,34.1,30.00,NW,317,0.0,0.0,93,0.00,CLR,,0.00,WeatherDisplay:10.37,2014-10-31 06:06:00,
2014-10-31 02:11:00,35.9,34.1,30.00,NW,317,0.0,0.0,93,0.00,CLR,,0.00,WeatherDisplay:10.37,2014-10-31 06:11:00,
2014-10-31 02:16:00,36.0,34.2,30.00,NW,317,0.0,0.0,93,0.00,CLR,,0.00,WeatherDisplay:10.37,2014-10-31 06:16:00,
2014-10-31 02:21:00,36.0,34.2,30.00,NW,317,0.0,0.0,93,0.00,CLR,,0.00,WeatherDisplay:10.37,2014-10-31 06:21:00,
2014-10-31 02:26:00,35.8,34.0,30.00,NW,317,0.0,0.0,93,0.00,CLR,,0.00,WeatherDisplay:10.37,2014-10-31 06:26:00,
2014-10-31 02:31:00,35.6,33.8,30.00,NW,317,0.0,0.0,93,0.00,CLR,,0.00,WeatherDisplay:10.37,2014-10-31 06:31:00,
2014-10-31 02:36:00,35.5,33.9,30.01,NW,317,1.2,1.2,94,0.00,CLR,,0.00,WeatherDisplay:10.37,2014-10-31 06:36:00,
2014-10-31 02:41:00,35.5,33.7,30.01,NW,317,0.0,0.0,93,0.00,CLR,,0.00,WeatherDisplay:10.37,2014-10-31 06:41:00,
2014-10-31 02:46:00,35.4,33.6,30.01,NW,317,0.0,0.0,93,0.00,CLR,,0.00,WeatherDisplay:10.37,2014-10-31 06:46:00,
2014-10-31 02:51:00,35.4,33.6,30.01,NW,317,0.0,0.0,93,0.00,CLR,,0.00,WeatherDisplay:10.37,2014-10-31 06:51:00,
2014-10-31 02:56:00,35.4,33.6,30.00,NW,317,0.0,0.0,93,0.00,CLR,,0.00,WeatherDisplay:10.37,2014-10-31 06:56:00,
2014-10-31 03:01:00,35.3,33.5,30.01,NW,317,0.0,0.0,93,0.00,CLR,,0.00,WeatherDisplay:10.37,2014-10-31 07:01:00,
2014-10-31 03:06:00,35.3,33.5,30.01,NW,317,0.0,0.0,93,0.00,CLR,,0.00,WeatherDisplay:10.37,2014-10-31 07:06:00,
2014-10-31 03:11:00,35.2,33.4,30.01,NW,317,0.0,0.0,93,0.00,CLR,,0.00,WeatherDisplay:10.37,2014-10-31 07:11:00,
2014-10-31 03:16:00,35.1,33.3,30.01,NW,317,0.0,0.0,93,0.00,CLR,,0.00,WeatherDisplay:10.37,2014-10-31 07:16:00,
2014-10-31 03:21:00,35.0,33.2,30.00,NW,317,0.0,0.0,93,0.00,CLR,,0.00,WeatherDisplay:10.37,2014-10-31 07:21:00,
2014-10-31 03:26:00,34.9,33.1,30.00,NW,317,0.0,0.0,93,0.00,CLR,,0.00,WeatherDisplay:10.37,2014-10-31 07:26:00,
2014-10-31 03:31:00,34.8,33.0,30.01,NW,317,0.0,0.0,93,0.00,CLR,,0.00,WeatherDisplay:10.37,2014-10-31 07:31:00,
2014-10-31 03:36:00,34.7,32.9,30.01,NW,317,0.0,0.0,93,0.00,CLR,,0.00,WeatherDisplay:10.37,2014-10-31 07:36:00,
2014-10-31 03:41:00,34.7,32.9,30.00,NW,317,0.0,0.0,93,0.00,CLR,,0.00,WeatherDisplay:10.37,2014-10-31 07:41:00,
2014-10-31 03:46:00,34.6,32.8,30.01,NW,317,1.2,1.2,93,0.00,CLR,,0.00,WeatherDisplay:10.37,2014-10-31 07:46:00,
2014-10-31 03:51:00,34.6,32.8,30.00,NW,317,1.2,1.2,93,0.00,CLR,,0.00,WeatherDisplay:10.37,2014-10-31 07:51:00,
2014-10-31 03:56:00,34.5,32.7,30.01,NW,317,0.0,0.0,93,0.00,CLR,,0.00,WeatherDisplay:10.37,2014-10-31 07:56:00,
2014-10-31 04:01:00,34.4,32.6,30.01,NW,317,0.0,0.0,93,0.00,CLR,,0.00,WeatherDisplay:10.37,2014-10-31 08:01:00,
2014-10-31 04:06:00,34.4,32.6,30.00,NW,317,0.0,0.0,93,0.00,CLR,,0.00,WeatherDisplay:10.37,2014-10-31 08:06:00,
2014-10-31 04:11:00,34.3,32.5,30.00,NW,317,1.3,1.3,93,0.00,CLR,,0.00,WeatherDisplay:10.37,2014-10-31 08:11:00,
2014-10-31 04:16:00,34.3,32.5,30.01,NW,317,1.2,1.3,93,0.00,CLR,,0.00,WeatherDisplay:10.37,2014-10-31 08:16:00,
2014-10-31 04:21:00,34.2,32.4,30.01,NW,317,1.2,0.0,93,0.00,CLR,,0.00,WeatherDisplay:10.37,2014-10-31 08:21:00,
2014-10-31 04:26:00,34.1,32.3,30.01,NW,317,0.0,0.0,93,0.00,CLR,,0.00,WeatherDisplay:10.37,2014-10-31 08:26:00,
2014-10-31 04:31:00,34.0,32.2,30.01,NW,317,0.0,0.0,93,0.00,CLR,,0.00,WeatherDisplay:10.37,2014-10-31 08:31:00,
2014-10-31 04:36:00,33.9,32.1,30.01,NW,317,1.2,1.2,93,0.00,CLR,,0.00,WeatherDisplay:10.37,2014-10-31 08:36:00,
2014-10-31 04:41:00,33.8,32.0,30.01,NW,317,0.0,0.0,93,0.00,CLR,,0.00,WeatherDisplay:10.37,2014-10-31 08:41:00,
2014-10-31 04:46:00,33.8,32.0,30.01,NW,317,1.2,0.0,93,0.00,CLR,,0.00,WeatherDisplay:10.37,2014-10-31 08:46:00,
2014-10-31 04:51:00,33.7,31.9,30.02,NW,317,0.0,0.0,93,0.00,CLR,,0.00,WeatherDisplay:10.37,2014-10-31 08:51:00,
2014-10-31 04:56:00,33.6,31.8,30.02,NW,317,1.2,1.2,93,0.00,CLR,,0.00,WeatherDisplay:10.37,2014-10-31 08:56:00,
2014-10-31 05:01:00,33.6,31.8,30.02,NW,317,0.0,0.0,93,0.00,CLR,,0.00,WeatherDisplay:10.37,2014-10-31 09:01:00,
2014-10-31 05:06:00,33.5,32.0,30.02,NW,317,0.0,0.0,94,0.00,CLR,,0.00,WeatherDisplay:10.37,2014-10-31 09:06:00,
2014-10-31 05:11:00,33.4,31.9,30.02,NW,317,0.0,0.0,94,0.00,CLR,,0.00,WeatherDisplay:10.37,2014-10-31 09:11:00,
2014-10-31 05:16:00,33.4,31.9,30.02,NW,317,0.0,0.0,94,0.00,CLR,,0.00,WeatherDisplay:10.37,2014-10-31 09:16:00,
2014-10-31 05:21:00,32.6,31.1,30.02,NW,317,0.0,0.0,94,0.00,CLR,,0.00,WeatherDisplay:10.37,2014-10-31 09:21:00,
2014-10-31 05:26:00,32.5,31.0,30.02,NW,318,0.0,0.0,94,0.00,CLR,,0.00,WeatherDisplay:10.37,2014-10-31 09:26:00,
2014-10-31 05:31:00,32.5,31.0,30.02,NW,318,0.0,0.0,94,0.00,CLR,,0.00,WeatherDisplay:10.37,2014-10-31 09:31:00,
2014-10-31 05:36:00,32.5,31.0,30.02,NW,318,0.0,0.0,94,0.00,CLR,,0.00,WeatherDisplay:10.37,2014-10-31 09:36:00,
2014-10-31 05:41:00,32.5,31.0,30.02,NW,318,0.0,0.0,94,0.00,CLR,,0.00,WeatherDisplay:10.37,2014-10-31 09:41:00,
2014-10-31 05:46:00,32.4,30.9,30.02,NW,318,0.0,0.0,94,0.00,CLR,,0.00,WeatherDisplay:10.37,2014-10-31 09:46:00,
2014-10-31 05:51:00,32.4,30.9,30.03,NW,318,0.0,0.0,94,0.00,CLR,,0.00,WeatherDisplay:10.37,2014-10-31 09:51:00,
2014-10-31 05:56:00,32.4,30.9,30.02,NW,318,0.0,0.0,94,0.00,CLR,,0.00,WeatherDisplay:10.37,2014-10-31 09:56:00,
2014-10-31 06:01:00,32.3,30.8,30.02,NW,318,0.0,0.0,94,0.00,CLR,,0.00,WeatherDisplay:10.37,2014-10-31 10:01:00,
2014-10-31 06:06:00,32.3,30.8,30.03,NW,318,0.0,0.0,94,0.00,CLR,,0.00,WeatherDisplay:10.37,2014-10-31 10:06:00,
2014-10-31 06:11:00,32.2,30.7,30.03,NW,318,0.0,0.0,94,0.00,CLR,,0.00,WeatherDisplay:10.37,2014-10-31 10:11:00,
2014-10-31 06:16:00,32.2,30.7,30.03,NW,318,0.0,0.0,94,0.00,CLR,,0.00,WeatherDisplay:10.37,2014-10-31 10:16:00,
2014-10-31 06:21:00,32.2,30.9,30.03,NW,318,0.0,0.0,95,0.00,CLR,,0.00,WeatherDisplay:10.37,2014-10-31 10:21:00,
2014-10-31 06:26:00,32.2,30.9,30.03,NW,318,0.0,0.0,95,0.00,CLR,,0.00,WeatherDisplay:10.37,2014-10-31 10:26:00,
2014-10-31 06:31:00,32.2,30.9,30.03,NW,318,0.0,0.0,95,0.00,CLR,,0.00,WeatherDisplay:10.37,2014-10-31 10:31:00,
2014-10-31 06:36:00,32.3,31.0,30.03,NW,318,0.0,0.0,95,0.00,CLR,,0.00,WeatherDisplay:10.37,2014-10-31 10:36:00,
2014-10-31 06:41:00,32.4,31.1,30.03,NW,318,0.0,0.0,95,0.00,CLR,,0.00,WeatherDisplay:10.37,2014-10-31 10:41:00,
2014-10-31 06:46:00,32.4,31.1,30.03,NW,318,0.0,0.0,95,0.00,CLR,,0.00,WeatherDisplay:10.37,2014-10-31 10:46:00,
2014-10-31 06:51:00,32.5,31.5,30.03,NW,318,0.0,0.0,96,0.00,CLR,,0.00,WeatherDisplay:10.37,2014-10-31 10:51:00,
2014-10-31 06:56:00,32.7,31.7,30.03,NW,318,0.0,0.0,96,0.00,CLR,,0.00,WeatherDisplay:10.37,2014-10-31 10:56:00,
2014-10-31 07:01:00,32.8,31.8,30.03,NW,318,0.0,0.0,96,0.00,BKN,,0.00,WeatherDisplay:10.37,2014-10-31 11:01:00,
2014-10-31 07:06:00,32.9,31.9,30.03,NW,318,0.0,0.0,96,0.00,BKN,,0.00,WeatherDisplay:10.37,2014-10-31 11:06:00,
2014-10-31 07:11:00,33.1,32.1,30.03,NW,318,0.0,0.0,96,0.00,BKN,,0.00,WeatherDisplay:10.37,2014-10-31 11:11:00,
2014-10-31 07:16:00,33.3,32.3,30.04,NW,318,0.0,0.0,96,0.00,BKN,,0.00,WeatherDisplay:10.37,2014-10-31 11:16:00,
2014-10-31 07:21:00,33.5,32.5,30.04,NW,318,0.0,0.0,96,0.00,BKN,,0.00,WeatherDisplay:10.37,2014-10-31 11:21:00,
2014-10-31 07:26:00,33.8,32.8,30.04,NW,318,0.0,0.0,96,0.00,BKN,,0.00,WeatherDisplay:10.37,2014-10-31 11:26:00,
2014-10-31 07:31:00,35.5,34.7,30.04,NW,318,0.0,0.0,97,0.00,BKN,,0.00,WeatherDisplay:10.37,2014-10-31 11:31:00,
2014-10-31 07:36:00,36.7,34.6,30.05,NW,318,0.0,0.0,92,0.00,BKN,,0.00,WeatherDisplay:10.37,2014-10-31 11:36:00,